createdAt,value
2022-09-16T00:05:49.154Z,15.40
2022-09-16T00:12:31.840Z,15.40
2022-09-16T00:19:14.226Z,15.50
2022-09-16T00:25:56.584Z,15.50
2022-09-16T00:32:38.920Z,15.60
2022-09-16T00:39:21.232Z,15.60
2022-09-16T00:46:05.887Z,15.60
2022-09-16T00:52:50.570Z,15.60
2022-09-16T00:59:36.349Z,15.60
2022-09-16T01:06:19.568Z,15.60
2022-09-16T01:13:06.457Z,15.70
2022-09-16T01:20:10.073Z,15.60
2022-09-16T01:26:58.109Z,15.70
2022-09-16T01:34:01.334Z,15.70
2022-09-16T01:41:19.854Z,15.80
2022-09-16T01:48:19.733Z,15.50
2022-09-16T01:55:06.706Z,15.60
2022-09-16T02:02:04.331Z,15.50
2022-09-16T02:08:57.476Z,15.40
2022-09-16T02:15:42.131Z,15.20
2022-09-16T02:22:32.251Z,15.10
2022-09-16T02:29:21.043Z,15.00
2022-09-16T02:36:05.595Z,14.90
2022-09-16T02:42:49.204Z,14.80
2022-09-16T02:49:59.292Z,14.80
2022-09-16T02:56:42.262Z,14.70
2022-09-16T03:03:25.238Z,14.60
2022-09-16T03:10:11.756Z,14.60
2022-09-16T03:16:57.947Z,14.60
2022-09-16T03:23:52.381Z,14.60
2022-09-16T03:30:52.495Z,14.60
2022-09-16T03:37:38.290Z,14.70
2022-09-16T03:44:20.619Z,14.70
2022-09-16T03:51:03.042Z,14.80
2022-09-16T03:57:45.347Z,14.90
2022-09-16T04:04:27.849Z,14.80
2022-09-16T04:11:10.170Z,14.80
2022-09-16T04:17:52.756Z,14.90
2022-09-16T04:24:35.639Z,15.10
2022-09-16T04:31:18.029Z,15.00
2022-09-16T04:38:00.419Z,14.90
2022-09-16T04:44:42.767Z,15.00
2022-09-16T04:51:27.342Z,15.00
2022-09-16T04:58:09.926Z,14.90
2022-09-16T05:04:52.246Z,15.00
2022-09-16T05:11:37.163Z,15.10
2022-09-16T05:18:19.455Z,15.10
2022-09-16T05:25:01.807Z,15.10
2022-09-16T05:31:48.977Z,15.00
2022-09-16T05:38:31.341Z,15.20
2022-09-16T05:45:13.767Z,15.30
2022-09-16T05:51:56.100Z,15.20
2022-09-16T05:58:39.595Z,15.20
2022-09-16T06:05:21.978Z,15.30
2022-09-16T06:12:04.500Z,15.20
2022-09-16T06:18:46.892Z,15.10
2022-09-16T06:25:29.263Z,15.10
2022-09-16T06:32:11.973Z,15.00
2022-09-16T06:38:54.638Z,14.80
2022-09-16T06:45:36.934Z,14.80
2022-09-16T06:52:19.633Z,14.90
2022-09-16T06:59:01.962Z,14.80
2022-09-16T07:05:44.333Z,14.50
2022-09-16T07:12:28.542Z,14.20
2022-09-16T07:19:10.845Z,14.20
2022-09-16T07:26:10.244Z,13.90
2022-09-16T07:32:52.604Z,14.20
2022-09-16T07:39:34.885Z,14.70
2022-09-16T07:46:18.592Z,15.00
2022-09-16T07:53:01.062Z,15.70
2022-09-16T07:59:43.339Z,15.10
2022-09-16T08:06:28.020Z,14.90
2022-09-16T08:13:10.354Z,15.10
2022-09-16T08:19:52.715Z,15.00
2022-09-16T08:26:35.056Z,15.30
2022-09-16T08:33:21.033Z,15.70
2022-09-16T08:40:05.833Z,15.70
2022-09-16T08:47:06.151Z,16.00
2022-09-16T08:54:01.414Z,15.90
2022-09-16T09:00:47.315Z,16.00
2022-09-16T09:07:29.673Z,16.10
2022-09-16T09:14:33.521Z,16.20
2022-09-16T09:21:27.531Z,16.40
2022-09-16T09:28:31.135Z,16.10
2022-09-16T09:35:34.308Z,16.60
2022-09-16T09:42:21.656Z,16.40
2022-09-16T09:49:12.102Z,16.30
2022-09-16T09:56:00.916Z,16.70
2022-09-16T10:02:49.619Z,17.00
2022-09-16T10:09:34.134Z,17.10
2022-09-16T10:16:20.725Z,17.10
2022-09-16T10:23:09.365Z,17.10
2022-09-16T10:30:15.504Z,17.20
2022-09-16T10:37:12.939Z,17.10
2022-09-16T10:43:58.975Z,16.90
2022-09-16T10:50:59.080Z,17.00
2022-09-16T10:57:42.496Z,17.10
2022-09-16T11:04:48.591Z,17.00
2022-09-16T11:11:37.740Z,17.10
2022-09-16T11:18:50.668Z,17.10
2022-09-16T11:25:46.807Z,17.00
2022-09-16T11:32:49.347Z,16.80
2022-09-16T11:39:42.826Z,16.80
2022-09-16T11:46:39.962Z,16.80
2022-09-16T11:53:55.598Z,17.00
2022-09-16T12:00:39.643Z,17.50
2022-09-16T12:07:29.425Z,18.20
2022-09-16T12:14:25.684Z,18.70
2022-09-16T12:21:14.329Z,19.50
2022-09-16T12:28:06.014Z,19.50
2022-09-16T12:34:58.858Z,20.10
2022-09-16T12:42:11.431Z,19.50
2022-09-16T12:49:31.509Z,18.80
2022-09-16T12:56:45.546Z,18.50
2022-09-16T13:03:31.426Z,18.30
2022-09-16T13:17:40.232Z,18.50
2022-09-16T13:24:41.254Z,18.40
2022-09-16T13:31:33.990Z,18.70
2022-09-16T13:38:21.637Z,18.80
2022-09-16T13:45:04.301Z,18.90
2022-09-16T13:51:48.670Z,19.20
2022-09-16T13:58:45.924Z,19.30
2022-09-16T14:05:55.827Z,18.90
2022-09-16T14:12:53.943Z,18.90
2022-09-16T14:19:38.720Z,18.80
2022-09-16T14:26:23.607Z,18.80
2022-09-16T14:33:06.925Z,19.20
2022-09-16T14:39:54.508Z,19.10
2022-09-16T14:46:56.841Z,19.10
2022-09-16T14:54:11.662Z,19.20
2022-09-16T15:00:58.923Z,19.00
2022-09-16T15:07:56.450Z,18.90
2022-09-16T15:14:45.368Z,19.10
2022-09-16T15:21:33.831Z,19.10
2022-09-16T15:28:18.956Z,18.90
2022-09-16T15:35:19.507Z,18.80
2022-09-16T15:42:20.740Z,18.80
2022-09-16T15:49:03.423Z,18.60
2022-09-16T15:56:05.691Z,18.50
2022-09-16T16:02:57.367Z,18.50
2022-09-16T16:09:42.698Z,18.60
2022-09-16T16:16:25.623Z,18.20
2022-09-16T16:23:07.989Z,17.90
2022-09-16T16:29:50.623Z,17.90
2022-09-16T16:36:32.938Z,18.00
2022-09-16T16:43:15.599Z,18.10
2022-09-16T16:49:58.509Z,17.90
2022-09-16T16:56:41.076Z,17.60
2022-09-16T17:03:23.489Z,17.30
2022-09-16T17:10:06.190Z,17.20
2022-09-16T17:16:49.245Z,16.90
2022-09-16T17:23:31.630Z,16.40
2022-09-16T17:30:14.116Z,15.90
2022-09-16T17:36:57.472Z,15.30
2022-09-16T17:43:41.066Z,14.90
2022-09-16T17:50:23.379Z,14.90
2022-09-16T17:57:05.726Z,14.90
2022-09-16T18:03:50.295Z,15.00
2022-09-16T18:10:32.731Z,15.10
2022-09-16T18:17:15.463Z,15.30
2022-09-16T18:24:00.957Z,15.30
2022-09-16T18:30:44.236Z,15.10
2022-09-16T18:37:28.498Z,15.00
2022-09-16T18:44:16.630Z,14.90
2022-09-16T18:50:58.955Z,14.70
2022-09-16T18:57:41.288Z,14.60
2022-09-16T19:04:26.750Z,14.30
2022-09-16T19:11:09.282Z,14.10
2022-09-16T19:17:51.849Z,14.00
2022-09-16T19:24:34.492Z,13.90
2022-09-16T19:31:17.217Z,13.80
2022-09-16T19:38:00.743Z,13.70
2022-09-16T19:44:43.078Z,13.50
2022-09-16T19:51:25.825Z,13.50
2022-09-16T19:58:09.118Z,13.60
2022-09-16T20:04:51.531Z,13.50
2022-09-16T20:11:36.474Z,13.70
2022-09-16T20:18:19.590Z,13.60
2022-09-16T20:25:22.039Z,13.60
2022-09-16T20:32:04.301Z,13.40
2022-09-16T20:38:48.341Z,13.30
2022-09-16T20:45:30.961Z,13.40
2022-09-16T20:52:13.328Z,13.20
2022-09-16T20:58:55.845Z,12.30
2022-09-16T21:05:38.228Z,13.10
2022-09-16T21:12:20.863Z,13.10
2022-09-16T21:19:06.759Z,13.20
2022-09-16T21:25:49.098Z,13.20
2022-09-16T21:32:32.368Z,13.30
2022-09-16T21:39:15.641Z,13.30
2022-09-16T21:45:58.525Z,13.30
2022-09-16T21:52:40.969Z,13.20
2022-09-16T21:59:23.737Z,13.30
2022-09-16T22:06:08.426Z,13.30
2022-09-16T22:12:50.762Z,13.20
2022-09-16T22:19:33.066Z,12.90
2022-09-16T22:26:17.275Z,13.10
2022-09-16T22:33:00.335Z,12.80
2022-09-16T22:39:42.639Z,12.40
2022-09-16T22:46:28.451Z,12.70
2022-09-16T22:53:11.025Z,12.60
2022-09-16T22:59:53.346Z,12.20
2022-09-16T23:06:37.094Z,12.50
2022-09-16T23:13:21.602Z,12.40
2022-09-16T23:20:04.139Z,12.40
2022-09-16T23:26:47.628Z,12.30
2022-09-16T23:33:29.962Z,12.20
2022-09-16T23:40:12.326Z,12.20
2022-09-16T23:46:54.736Z,12.20
2022-09-16T23:53:38.535Z,12.20
